sensor_id;sensor_type;location;lat;lon;timestamp;pressure;altitude;pressure_sealevel;temperature;humidity
52949;BME280;38812;50.942;3.644;2023-08-12T00:00:40;101745.91;;;19.94;100.00
52949;BME280;38812;50.942;3.644;2023-08-12T00:03:06;101729.97;;;19.93;100.00
52949;BME280;38812;50.942;3.644;2023-08-12T00:05:31;101717.81;;;19.87;100.00
52949;BME280;38812;50.942;3.644;2023-08-12T00:07:56;101726.59;;;19.89;100.00
52949;BME280;38812;50.942;3.644;2023-08-12T00:10:22;101730.94;;;19.92;100.00
52949;BME280;38812;50.942;3.644;2023-08-12T00:12:47;101715.94;;;19.89;100.00
52949;BME280;38812;50.942;3.644;2023-08-12T00:15:12;101717.69;;;19.90;100.00
52949;BME280;38812;50.942;3.644;2023-08-12T00:17:38;101702.59;;;19.89;100.00
52949;BME280;38812;50.942;3.644;2023-08-12T00:20:06;101705.97;;;19.93;100.00
52949;BME280;38812;50.942;3.644;2023-08-12T00:22:33;101709.75;;;19.89;100.00
52949;BME280;38812;50.942;3.644;2023-08-12T00:25:00;101707.16;;;19.87;100.00
52949;BME280;38812;50.942;3.644;2023-08-12T00:27:25;101704.63;;;19.84;100.00
52949;BME280;38812;50.942;3.644;2023-08-12T00:29:50;101700.22;;;19.83;100.00
52949;BME280;38812;50.942;3.644;2023-08-12T00:32:16;101702.09;;;19.81;100.00
52949;BME280;38812;50.942;3.644;2023-08-12T00:34:42;101696.09;;;19.76;100.00
52949;BME280;38812;50.942;3.644;2023-08-12T00:37:07;101693.44;;;19.76;100.00
52949;BME280;38812;50.942;3.644;2023-08-12T00:39:32;101697.03;;;19.75;100.00
52949;BME280;38812;50.942;3.644;2023-08-12T00:41:58;101697.22;;;19.70;100.00
52949;BME280;38812;50.942;3.644;2023-08-12T00:44:23;101692.13;;;19.66;100.00
52949;BME280;38812;50.942;3.644;2023-08-12T00:46:49;101682.41;;;19.65;100.00
52949;BME280;38812;50.942;3.644;2023-08-12T00:49:15;101694.78;;;19.66;100.00
52949;BME280;38812;50.942;3.644;2023-08-12T00:51:42;101688.59;;;19.65;100.00
52949;BME280;38812;50.942;3.644;2023-08-12T00:54:14;101686.94;;;19.63;100.00
52949;BME280;38812;50.942;3.644;2023-08-12T00:56:41;101684.34;;;19.61;100.00
52949;BME280;38812;50.942;3.644;2023-08-12T00:59:08;101690.53;;;19.62;100.00
52949;BME280;38812;50.942;3.644;2023-08-12T01:01:35;101687.13;;;19.58;100.00
52949;BME280;38812;50.942;3.644;2023-08-12T01:04:00;101678.28;;;19.58;100.00
52949;BME280;38812;50.942;3.644;2023-08-12T01:06:25;101679.13;;;19.58;100.00
52949;BME280;38812;50.942;3.644;2023-08-12T01:08:51;101672.00;;;19.59;100.00
52949;BME280;38812;50.942;3.644;2023-08-12T01:11:22;101670.28;;;19.58;100.00
52949;BME280;38812;50.942;3.644;2023-08-12T01:16:30;101677.22;;;19.62;100.00
52949;BME280;38812;50.942;3.644;2023-08-12T01:18:58;101679.13;;;19.58;100.00
52949;BME280;38812;50.942;3.644;2023-08-12T01:21:27;101676.69;;;19.54;100.00
52949;BME280;38812;50.942;3.644;2023-08-12T01:23:54;101682.00;;;19.54;100.00
52949;BME280;38812;50.942;3.644;2023-08-12T01:26:20;101678.69;;;19.48;100.00
52949;BME280;38812;50.942;3.644;2023-08-12T01:28:45;101692.81;;;19.50;100.00
52949;BME280;38812;50.942;3.644;2023-08-12T01:31:23;101680.38;;;19.49;100.00
52949;BME280;38812;50.942;3.644;2023-08-12T01:34:02;101678.81;;;19.45;100.00
52949;BME280;38812;50.942;3.644;2023-08-12T01:36:34;101677.22;;;19.41;100.00
52949;BME280;38812;50.942;3.644;2023-08-12T01:39:02;101693.06;;;19.44;100.00
52949;BME280;38812;50.942;3.644;2023-08-12T01:41:29;101698.53;;;19.41;100.00
52949;BME280;38812;50.942;3.644;2023-08-12T01:43:55;101695.94;;;19.40;100.00
52949;BME280;38812;50.942;3.644;2023-08-12T01:46:21;101681.06;;;19.34;100.00
52949;BME280;38812;50.942;3.644;2023-08-12T01:48:46;101693.38;;;19.37;100.00
52949;BME280;38812;50.942;3.644;2023-08-12T01:51:12;101687.19;;;19.36;100.00
52949;BME280;38812;50.942;3.644;2023-08-12T01:53:37;101680.13;;;19.35;100.00
52949;BME280;38812;50.942;3.644;2023-08-12T01:56:03;101688.13;;;19.35;100.00
52949;BME280;38812;50.942;3.644;2023-08-12T01:58:29;101686.25;;;19.37;100.00
52949;BME280;38812;50.942;3.644;2023-08-12T02:00:54;101684.47;;;19.38;100.00
52949;BME280;38812;50.942;3.644;2023-08-12T02:03:19;101684.53;;;19.36;100.00
52949;BME280;38812;50.942;3.644;2023-08-12T02:05:45;101694.31;;;19.36;100.00
52949;BME280;38812;50.942;3.644;2023-08-12T02:08:10;101691.72;;;19.34;100.00
52949;BME280;38812;50.942;3.644;2023-08-12T02:10:35;101702.38;;;19.34;100.00
52949;BME280;38812;50.942;3.644;2023-08-12T02:13:01;101718.38;;;19.34;100.00
52949;BME280;38812;50.942;3.644;2023-08-12T02:15:28;101716.75;;;19.30;100.00
52949;BME280;38812;50.942;3.644;2023-08-12T02:17:53;101720.22;;;19.32;100.00
52949;BME280;38812;50.942;3.644;2023-08-12T02:20:18;101715.19;;;19.26;100.00
52949;BME280;38812;50.942;3.644;2023-08-12T02:22:44;101711.56;;;19.27;100.00
52949;BME280;38812;50.942;3.644;2023-08-12T02:25:09;101694.00;;;19.23;100.00
52949;BME280;38812;50.942;3.644;2023-08-12T02:27:35;101689.88;;;19.16;100.00
52949;BME280;38812;50.942;3.644;2023-08-12T02:30:00;101685.47;;;19.15;100.00
52949;BME280;38812;50.942;3.644;2023-08-12T02:32:25;101682.13;;;19.10;100.00
52949;BME280;38812;50.942;3.644;2023-08-12T02:34:51;101687.88;;;19.01;100.00
52949;BME280;38812;50.942;3.644;2023-08-12T02:37:16;101680.69;;;19.03;100.00
52949;BME280;38812;50.942;3.644;2023-08-12T02:39:42;101686.81;;;19.05;100.00
52949;BME280;38812;50.942;3.644;2023-08-12T02:42:07;101696.50;;;19.06;100.00
52949;BME280;38812;50.942;3.644;2023-08-12T02:44:32;101691.34;;;19.03;100.00
52949;BME280;38812;50.942;3.644;2023-08-12T02:46:58;101698.25;;;19.07;100.00
52949;BME280;38812;50.942;3.644;2023-08-12T02:49:23;101696.59;;;19.04;100.00
52949;BME280;38812;50.942;3.644;2023-08-12T02:51:48;101719.59;;;19.05;100.00
52949;BME280;38812;50.942;3.644;2023-08-12T02:54:14;101703.50;;;19.08;100.00
52949;BME280;38812;50.942;3.644;2023-08-12T02:56:39;101702.56;;;19.09;100.00
52949;BME280;38812;50.942;3.644;2023-08-12T02:59:05;101698.97;;;19.10;100.00
52949;BME280;38812;50.942;3.644;2023-08-12T03:01:30;101705.19;;;19.11;100.00
52949;BME280;38812;50.942;3.644;2023-08-12T03:03:55;101702.50;;;19.11;100.00
52949;BME280;38812;50.942;3.644;2023-08-12T03:06:21;101684.16;;;19.05;100.00
52949;BME280;38812;50.942;3.644;2023-08-12T03:08:46;101713.22;;;19.09;100.00
52949;BME280;38812;50.942;3.644;2023-08-12T03:11:12;101704.31;;;19.10;100.00
52949;BME280;38812;50.942;3.644;2023-08-12T03:13:37;101691.84;;;19.11;100.00
52949;BME280;38812;50.942;3.644;2023-08-12T03:16:03;101689.19;;;19.11;100.00
52949;BME280;38812;50.942;3.644;2023-08-12T03:18:28;101683.13;;;19.07;100.00
52949;BME280;38812;50.942;3.644;2023-08-12T03:20:53;101684.88;;;19.08;100.00
52949;BME280;38812;50.942;3.644;2023-08-12T03:23:19;101678.84;;;19.05;100.00
52949;BME280;38812;50.942;3.644;2023-08-12T03:25:47;101681.50;;;19.05;100.00
52949;BME280;38812;50.942;3.644;2023-08-12T03:28:13;101673.63;;;19.02;100.00
52949;BME280;38812;50.942;3.644;2023-08-12T03:30:38;101673.56;;;19.03;100.00
52949;BME280;38812;50.942;3.644;2023-08-12T03:33:03;101672.63;;;19.04;100.00
52949;BME280;38812;50.942;3.644;2023-08-12T03:35:29;101674.50;;;19.02;100.00
52949;BME280;38812;50.942;3.644;2023-08-12T03:37:54;101670.03;;;19.03;100.00
52949;BME280;38812;50.942;3.644;2023-08-12T03:40:20;101676.34;;;19.00;100.00
52949;BME280;38812;50.942;3.644;2023-08-12T03:42:45;101669.38;;;18.98;100.00
52949;BME280;38812;50.942;3.644;2023-08-12T03:45:10;101664.22;;;18.93;100.00
52949;BME280;38812;50.942;3.644;2023-08-12T03:47:36;101666.94;;;18.92;100.00
52949;BME280;38812;50.942;3.644;2023-08-12T03:50:01;101663.34;;;18.93;100.00
52949;BME280;38812;50.942;3.644;2023-08-12T03:52:26;101663.50;;;18.90;100.00
52949;BME280;38812;50.942;3.644;2023-08-12T03:54:52;101661.81;;;18.87;100.00
52949;BME280;38812;50.942;3.644;2023-08-12T03:57:18;101657.47;;;18.84;100.00
52949;BME280;38812;50.942;3.644;2023-08-12T03:59:43;101656.56;;;18.86;100.00
52949;BME280;38812;50.942;3.644;2023-08-12T04:02:09;101656.56;;;18.86;100.00
52949;BME280;38812;50.942;3.644;2023-08-12T04:04:34;101651.97;;;18.89;100.00
52949;BME280;38812;50.942;3.644;2023-08-12T04:06:59;101659.28;;;18.84;100.00
52949;BME280;38812;50.942;3.644;2023-08-12T04:09:25;101661.00;;;18.85;100.00
52949;BME280;38812;50.942;3.644;2023-08-12T04:11:50;101654.97;;;18.81;100.00
52949;BME280;38812;50.942;3.644;2023-08-12T04:14:16;101661.16;;;18.82;100.00
52949;BME280;38812;50.942;3.644;2023-08-12T04:16:41;101651.38;;;18.82;100.00
52949;BME280;38812;50.942;3.644;2023-08-12T04:19:07;101655.09;;;18.78;100.00
52949;BME280;38812;50.942;3.644;2023-08-12T04:21:32;101661.28;;;18.79;100.00
52949;BME280;38812;50.942;3.644;2023-08-12T04:23:57;101651.50;;;18.79;100.00
52949;BME280;38812;50.942;3.644;2023-08-12T04:26:23;101652.31;;;18.81;100.00
52949;BME280;38812;50.942;3.644;2023-08-12T04:28:48;101648.91;;;18.78;100.00
52949;BME280;38812;50.942;3.644;2023-08-12T04:31:13;101638.41;;;18.75;100.00
52949;BME280;38812;50.942;3.644;2023-08-12T04:33:39;101644.41;;;18.80;100.00
52949;BME280;38812;50.942;3.644;2023-08-12T04:36:04;101646.25;;;18.78;100.00
52949;BME280;38812;50.942;3.644;2023-08-12T04:38:30;101642.72;;;18.77;100.00
52949;BME280;38812;50.942;3.644;2023-08-12T04:40:56;101647.25;;;18.75;100.00
52949;BME280;38812;50.942;3.644;2023-08-12T04:43:22;101640.13;;;18.76;100.00
52949;BME280;38812;50.942;3.644;2023-08-12T04:45:47;101642.59;;;18.80;100.00
52949;BME280;38812;50.942;3.644;2023-08-12T04:48:13;101644.47;;;18.78;100.00
52949;BME280;38812;50.942;3.644;2023-08-12T04:50:38;101651.50;;;18.79;100.00
52949;BME280;38812;50.942;3.644;2023-08-12T04:53:05;101644.47;;;18.78;100.00
52949;BME280;38812;50.942;3.644;2023-08-12T04:55:31;101656.72;;;18.82;100.00
52949;BME280;38812;50.942;3.644;2023-08-12T04:57:56;101647.78;;;18.83;100.00
52949;BME280;38812;50.942;3.644;2023-08-12T05:00:22;101643.41;;;18.82;100.00
52949;BME280;38812;50.942;3.644;2023-08-12T05:02:48;101644.47;;;18.78;100.00
52949;BME280;38812;50.942;3.644;2023-08-12T05:05:14;101645.91;;;18.86;100.00
52949;BME280;38812;50.942;3.644;2023-08-12T05:07:39;101652.16;;;18.84;100.00
52949;BME280;38812;50.942;3.644;2023-08-12T05:10:05;101657.47;;;18.84;100.00
52949;BME280;38812;50.942;3.644;2023-08-12T05:12:30;101658.22;;;18.88;100.00
52949;BME280;38812;50.942;3.644;2023-08-12T05:14:56;101668.81;;;18.90;100.00
52949;BME280;38812;50.942;3.644;2023-08-12T05:17:21;101663.63;;;18.87;100.00
52949;BME280;38812;50.942;3.644;2023-08-12T05:19:47;101670.53;;;18.91;100.00
52949;BME280;38812;50.942;3.644;2023-08-12T05:22:13;101677.59;;;18.92;100.00
52949;BME280;38812;50.942;3.644;2023-08-12T05:24:38;101672.28;;;18.92;100.00
52949;BME280;38812;50.942;3.644;2023-08-12T05:27:03;101688.38;;;18.89;100.00
52949;BME280;38812;50.942;3.644;2023-08-12T05:29:30;101699.41;;;18.58;100.00
52949;BME280;38812;50.942;3.644;2023-08-12T05:31:55;101688.50;;;18.20;100.00
52949;BME280;38812;50.942;3.644;2023-08-12T05:34:21;101709.38;;;18.07;100.00
52949;BME280;38812;50.942;3.644;2023-08-12T05:36:46;101704.28;;;17.78;100.00
52949;BME280;38812;50.942;3.644;2023-08-12T05:39:12;101690.63;;;17.65;100.00
52949;BME280;38812;50.942;3.644;2023-08-12T05:41:37;101682.75;;;17.37;100.00
52949;BME280;38812;50.942;3.644;2023-08-12T05:44:03;101683.25;;;17.24;100.00
52949;BME280;38812;50.942;3.644;2023-08-12T05:46:28;101693.41;;;17.11;100.00
52949;BME280;38812;50.942;3.644;2023-08-12T05:48:54;101679.28;;;16.86;100.00
52949;BME280;38812;50.942;3.644;2023-08-12T05:51:19;101668.69;;;16.84;100.00
52949;BME280;38812;50.942;3.644;2023-08-12T05:53:44;101668.13;;;16.74;100.00
52949;BME280;38812;50.942;3.644;2023-08-12T05:56:10;101665.63;;;16.70;100.00
52949;BME280;38812;50.942;3.644;2023-08-12T05:58:35;101674.41;;;16.72;100.00
52949;BME280;38812;50.942;3.644;2023-08-12T06:01:01;101660.06;;;16.77;100.00
52949;BME280;38812;50.942;3.644;2023-08-12T06:03:26;101656.25;;;16.86;100.00
52949;BME280;38812;50.942;3.644;2023-08-12T06:05:51;101646.59;;;16.84;100.00
52949;BME280;38812;50.942;3.644;2023-08-12T06:08:17;101658.09;;;16.84;100.00
52949;BME280;38812;50.942;3.644;2023-08-12T06:10:42;101649.56;;;16.74;100.00
52949;BME280;38812;50.942;3.644;2023-08-12T06:13:08;101648.75;;;16.72;100.00
52949;BME280;38812;50.942;3.644;2023-08-12T06:15:33;101655.31;;;16.61;100.00
52949;BME280;38812;50.942;3.644;2023-08-12T06:18:00;101641.94;;;16.65;100.00
52949;BME280;38812;50.942;3.644;2023-08-12T06:20:25;101644.03;;;16.54;100.00
52949;BME280;38812;50.942;3.644;2023-08-12T06:22:51;101628.47;;;16.43;100.00
52949;BME280;38812;50.942;3.644;2023-08-12T06:25:17;101635.75;;;16.37;100.00
52949;BME280;38812;50.942;3.644;2023-08-12T06:27:43;101630.44;;;16.37;100.00
52949;BME280;38812;50.942;3.644;2023-08-12T06:30:09;101630.53;;;16.34;100.00
52949;BME280;38812;50.942;3.644;2023-08-12T06:32:35;101638.41;;;16.37;100.00
52949;BME280;38812;50.942;3.644;2023-08-12T06:35:01;101643.53;;;16.43;100.00
52949;BME280;38812;50.942;3.644;2023-08-12T06:37:26;101633.41;;;16.54;100.00
52949;BME280;38812;50.942;3.644;2023-08-12T06:39:52;101638.22;;;16.69;100.00
52949;BME280;38812;50.942;3.644;2023-08-12T06:42:17;101637.31;;;16.70;100.00
52949;BME280;38812;50.942;3.644;2023-08-12T06:44:42;101661.97;;;16.74;100.00
52949;BME280;38812;50.942;3.644;2023-08-12T06:47:08;101646.00;;;17.00;100.00
52949;BME280;38812;50.942;3.644;2023-08-12T06:49:33;101648.78;;;17.22;100.00
52949;BME280;38812;50.942;3.644;2023-08-12T06:51:58;101647.16;;;17.18;100.00
52949;BME280;38812;50.942;3.644;2023-08-12T06:54:24;101637.91;;;17.05;100.00
52949;BME280;38812;50.942;3.644;2023-08-12T06:56:50;101642.28;;;17.06;100.00
52949;BME280;38812;50.942;3.644;2023-08-12T06:59:15;101645.41;;;17.17;100.00
52949;BME280;38812;50.942;3.644;2023-08-12T07:01:40;101632.09;;;17.19;100.00
52949;BME280;38812;50.942;3.644;2023-08-12T07:04:06;101630.28;;;17.19;100.00
52949;BME280;38812;50.942;3.644;2023-08-12T07:06:31;101626.13;;;17.12;100.00
52949;BME280;38812;50.942;3.644;2023-08-12T07:08:57;101627.78;;;17.14;100.00
52949;BME280;38812;50.942;3.644;2023-08-12T07:11:22;101625.66;;;17.49;100.00
52949;BME280;38812;50.942;3.644;2023-08-12T07:13:47;101629.72;;;18.04;100.00
52949;BME280;38812;50.942;3.644;2023-08-12T07:16:13;101607.63;;;18.46;100.00
52949;BME280;38812;50.942;3.644;2023-08-12T07:18:38;101593.34;;;18.70;100.00
52949;BME280;38812;50.942;3.644;2023-08-12T07:21:04;101585.31;;;18.50;100.00
52949;BME280;38812;50.942;3.644;2023-08-12T07:23:29;101592.09;;;18.57;100.00
52949;BME280;38812;50.942;3.644;2023-08-12T07:25:54;101584.75;;;18.84;100.00
52949;BME280;38812;50.942;3.644;2023-08-12T07:28:20;101578.72;;;18.60;100.00
52949;BME280;38812;50.942;3.644;2023-08-12T07:30:45;101566.84;;;18.03;100.00
52949;BME280;38812;50.942;3.644;2023-08-12T07:33:11;101574.47;;;17.91;100.00
52949;BME280;38812;50.942;3.644;2023-08-12T07:35:36;101589.66;;;17.87;100.00
52949;BME280;38812;50.942;3.644;2023-08-12T07:38:01;101584.03;;;17.73;100.00
52949;BME280;38812;50.942;3.644;2023-08-12T07:40:27;101586.72;;;17.95;100.00
52949;BME280;38812;50.942;3.644;2023-08-12T07:42:52;101587.19;;;18.04;100.00
52949;BME280;38812;50.942;3.644;2023-08-12T07:45:18;101577.06;;;18.14;100.00
52949;BME280;38812;50.942;3.644;2023-08-12T07:47:43;101592.66;;;18.65;100.00
52949;BME280;38812;50.942;3.644;2023-08-12T07:50:09;101589.63;;;18.74;100.00
52949;BME280;38812;50.942;3.644;2023-08-12T07:52:34;101578.41;;;18.66;100.00
52949;BME280;38812;50.942;3.644;2023-08-12T07:55:01;101571.88;;;19.14;100.00
52949;BME280;38812;50.942;3.644;2023-08-12T07:57:26;101565.56;;;19.35;100.00
52949;BME280;38812;50.942;3.644;2023-08-12T07:59:51;101566.59;;;19.70;100.00
52949;BME280;38812;50.942;3.644;2023-08-12T08:02:17;101571.59;;;19.20;100.00
52949;BME280;38812;50.942;3.644;2023-08-12T08:04:43;101562.94;;;19.15;100.00
52949;BME280;38812;50.942;3.644;2023-08-12T08:07:08;101560.38;;;19.32;100.00
52949;BME280;38812;50.942;3.644;2023-08-12T08:09:34;101570.91;;;19.35;100.00
52949;BME280;38812;50.942;3.644;2023-08-12T08:11:59;101558.09;;;19.81;100.00
52949;BME280;38812;50.942;3.644;2023-08-12T08:14:26;101556.22;;;19.27;100.00
52949;BME280;38812;50.942;3.644;2023-08-12T08:16:51;101563.69;;;19.37;100.00
52949;BME280;38812;50.942;3.644;2023-08-12T08:19:17;101570.75;;;19.38;100.00
52949;BME280;38812;50.942;3.644;2023-08-12T08:21:43;101595.00;;;18.93;100.00
52949;BME280;38812;50.942;3.644;2023-08-12T08:24:08;101584.81;;;18.62;100.00
52949;BME280;38812;50.942;3.644;2023-08-12T08:26:36;101585.25;;;18.52;100.00
52949;BME280;38812;50.942;3.644;2023-08-12T08:29:02;101574.47;;;18.55;100.00
52949;BME280;38812;50.942;3.644;2023-08-12T08:31:28;101563.13;;;18.71;100.00
52949;BME280;38812;50.942;3.644;2023-08-12T08:33:53;101591.03;;;18.83;100.00
52949;BME280;38812;50.942;3.644;2023-08-12T08:36:18;101594.06;;;19.14;100.00
52949;BME280;38812;50.942;3.644;2023-08-12T08:38:44;101596.28;;;19.05;100.00
52949;BME280;38812;50.942;3.644;2023-08-12T08:41:10;101612.06;;;19.28;100.00
52949;BME280;38812;50.942;3.644;2023-08-12T08:43:36;101592.69;;;19.82;100.00
52949;BME280;38812;50.942;3.644;2023-08-12T08:46:02;101595.84;;;20.09;100.00
52949;BME280;38812;50.942;3.644;2023-08-12T08:48:28;101602.47;;;19.44;100.00
52949;BME280;38812;50.942;3.644;2023-08-12T08:50:54;101604.16;;;19.66;100.00
52949;BME280;38812;50.942;3.644;2023-08-12T08:53:20;101599.00;;;19.99;100.00
52949;BME280;38812;50.942;3.644;2023-08-12T08:55:47;101599.75;;;19.83;100.00
52949;BME280;38812;50.942;3.644;2023-08-12T08:58:13;101599.97;;;20.34;100.00
52949;BME280;38812;50.942;3.644;2023-08-12T09:00:38;101590.50;;;20.63;100.00
52949;BME280;38812;50.942;3.644;2023-08-12T09:03:05;101596.81;;;20.26;100.00
52949;BME280;38812;50.942;3.644;2023-08-12T09:05:32;101601.31;;;20.06;100.00
52949;BME280;38812;50.942;3.644;2023-08-12T09:08:01;101593.84;;;20.32;100.00
52949;BME280;38812;50.942;3.644;2023-08-12T09:10:27;101589.09;;;19.83;100.00
52949;BME280;38812;50.942;3.644;2023-08-12T09:12:57;101598.06;;;20.00;100.00
52949;BME280;38812;50.942;3.644;2023-08-12T09:15:22;101601.34;;;20.60;100.00
52949;BME280;38812;50.942;3.644;2023-08-12T09:17:49;101598.75;;;20.93;100.00
52949;BME280;38812;50.942;3.644;2023-08-12T09:20:14;101599.81;;;21.72;100.00
52949;BME280;38812;50.942;3.644;2023-08-12T09:22:40;101603.28;;;21.74;100.00
52949;BME280;38812;50.942;3.644;2023-08-12T09:25:07;101601.81;;;21.68;100.00
52949;BME280;38812;50.942;3.644;2023-08-12T09:27:35;101598.06;;;20.72;100.00
52949;BME280;38812;50.942;3.644;2023-08-12T09:30:03;101605.25;;;20.16;100.00
52949;BME280;38812;50.942;3.644;2023-08-12T09:32:28;101605.59;;;20.46;100.00
52949;BME280;38812;50.942;3.644;2023-08-12T09:34:54;101603.38;;;20.89;100.00
52949;BME280;38812;50.942;3.644;2023-08-12T09:37:22;101598.75;;;20.93;100.00
52949;BME280;38812;50.942;3.644;2023-08-12T09:39:49;101601.59;;;20.72;100.00
52949;BME280;38812;50.942;3.644;2023-08-12T09:42:15;101607.56;;;20.77;100.00
52949;BME280;38812;50.942;3.644;2023-08-12T09:44:41;101598.97;;;21.23;100.00
52949;BME280;38812;50.942;3.644;2023-08-12T09:47:07;101605.06;;;20.74;100.00
52949;BME280;38812;50.942;3.644;2023-08-12T09:49:37;101606.81;;;21.26;100.00
52949;BME280;38812;50.942;3.644;2023-08-12T09:52:04;101604.19;;;22.06;100.00
52949;BME280;38812;50.942;3.644;2023-08-12T09:54:32;101611.47;;;22.34;100.00
52949;BME280;38812;50.942;3.644;2023-08-12T09:56:59;101601.50;;;20.91;100.00
52949;BME280;38812;50.942;3.644;2023-08-12T09:59:33;101598.22;;;21.20;100.00
52949;BME280;38812;50.942;3.644;2023-08-12T10:01:59;101595.94;;;21.62;100.00
52949;BME280;38812;50.942;3.644;2023-08-12T10:04:35;101599.41;;;22.56;100.00
52949;BME280;38812;50.942;3.644;2023-08-12T10:07:02;101599.34;;;22.28;100.00
52949;BME280;38812;50.942;3.644;2023-08-12T10:09:29;101610.56;;;22.03;100.00
52949;BME280;38812;50.942;3.644;2023-08-12T10:11:56;101589.91;;;21.25;100.00
52949;BME280;38812;50.942;3.644;2023-08-12T10:14:22;101603.94;;;20.61;100.00
52949;BME280;38812;50.942;3.644;2023-08-12T10:16:49;101593.88;;;20.66;100.00
52949;BME280;38812;50.942;3.644;2023-08-12T10:19:16;101592.41;;;21.77;100.00
52949;BME280;38812;50.942;3.644;2023-08-12T10:21:43;101574.91;;;22.18;100.00
52949;BME280;38812;50.942;3.644;2023-08-12T10:24:10;101584.06;;;21.83;100.00
52949;BME280;38812;50.942;3.644;2023-08-12T10:26:37;101585.88;;;22.30;100.00
52949;BME280;38812;50.942;3.644;2023-08-12T10:29:03;101586.56;;;22.17;100.00
52949;BME280;38812;50.942;3.644;2023-08-12T10:31:29;101579.53;;;22.31;100.00
52949;BME280;38812;50.942;3.644;2023-08-12T10:33:57;101577.75;;;22.91;100.00
52949;BME280;38812;50.942;3.644;2023-08-12T10:36:22;101571.06;;;22.08;100.00
52949;BME280;38812;50.942;3.644;2023-08-12T10:38:48;101570.66;;;22.14;100.00
52949;BME280;38812;50.942;3.644;2023-08-12T10:41:22;101569.41;;;22.36;100.00
52949;BME280;38812;50.942;3.644;2023-08-12T10:54:17;101553.97;;;24.51;100.00
52949;BME280;38812;50.942;3.644;2023-08-12T11:02:17;101549.72;;;24.61;100.00
52949;BME280;38812;50.942;3.644;2023-08-12T11:04:43;101551.81;;;24.43;100.00
52949;BME280;38812;50.942;3.644;2023-08-12T11:07:19;101549.72;;;24.07;100.00
52949;BME280;38812;50.942;3.644;2023-08-12T11:09:45;101548.78;;;24.35;100.00
52949;BME280;38812;50.942;3.644;2023-08-12T11:12:17;101546.41;;;24.83;100.00
52949;BME280;38812;50.942;3.644;2023-08-12T11:14:58;101548.97;;;25.22;100.00
52949;BME280;38812;50.942;3.644;2023-08-12T11:17:39;101539.56;;;23.85;100.00
52949;BME280;38812;50.942;3.644;2023-08-12T11:20:06;101549.06;;;24.04;100.00
52949;BME280;38812;50.942;3.644;2023-08-12T11:22:35;101555.72;;;24.77;100.00
52949;BME280;38812;50.942;3.644;2023-08-12T11:25:03;101558.69;;;23.67;100.00
52949;BME280;38812;50.942;3.644;2023-08-12T11:27:39;101549.00;;;23.50;100.00
52949;BME280;38812;50.942;3.644;2023-08-12T11:30:05;101547.00;;;24.21;100.00
52949;BME280;38812;50.942;3.644;2023-08-12T11:32:30;101541.13;;;24.81;100.00
52949;BME280;38812;50.942;3.644;2023-08-12T11:34:56;101541.09;;;24.56;100.00
52949;BME280;38812;50.942;3.644;2023-08-12T11:37:21;101550.66;;;23.38;100.00
52949;BME280;38812;50.942;3.644;2023-08-12T11:39:47;101546.81;;;22.55;100.00
52949;BME280;38812;50.942;3.644;2023-08-12T11:42:12;101535.84;;;22.60;100.00
52949;BME280;38812;50.942;3.644;2023-08-12T11:44:40;101541.63;;;23.39;100.00
52949;BME280;38812;50.942;3.644;2023-08-12T11:47:06;101547.41;;;24.15;100.00
52949;BME280;38812;50.942;3.644;2023-08-12T11:49:31;101544.44;;;24.72;100.00
52949;BME280;38812;50.942;3.644;2023-08-12T11:51:57;101540.91;;;24.84;100.00
52949;BME280;38812;50.942;3.644;2023-08-12T11:54:22;101534.78;;;24.82;100.00
52949;BME280;38812;50.942;3.644;2023-08-12T11:56:48;101544.06;;;23.85;100.00
52949;BME280;38812;50.942;3.644;2023-08-12T11:59:13;101544.06;;;23.85;100.00
52949;BME280;38812;50.942;3.644;2023-08-12T12:01:38;101541.09;;;24.43;100.00
52949;BME280;38812;50.942;3.644;2023-08-12T12:04:04;101546.25;;;24.59;100.00
52949;BME280;38812;50.942;3.644;2023-08-12T12:06:36;101547.47;;;25.18;100.00
52949;BME280;38812;50.942;3.644;2023-08-12T12:09:04;101534.56;;;25.23;100.00
52949;BME280;38812;50.942;3.644;2023-08-12T12:11:31;101548.69;;;25.02;100.00
52949;BME280;38812;50.942;3.644;2023-08-12T12:14:01;101538.34;;;24.83;100.00
52949;BME280;38812;50.942;3.644;2023-08-12T12:16:37;101548.53;;;23.43;100.00
52949;BME280;38812;50.942;3.644;2023-08-12T12:19:02;101547.91;;;23.11;100.00
52949;BME280;38812;50.942;3.644;2023-08-12T12:21:28;101553.81;;;22.58;100.00
52949;BME280;38812;50.942;3.644;2023-08-12T12:23:54;101553.06;;;22.26;100.00
52949;BME280;38812;50.942;3.644;2023-08-12T12:26:19;101569.38;;;22.21;100.00
52949;BME280;38812;50.942;3.644;2023-08-12T12:28:45;101568.84;;;22.90;100.00
52949;BME280;38812;50.942;3.644;2023-08-12T12:31:10;101559.19;;;23.86;100.00
52949;BME280;38812;50.942;3.644;2023-08-12T12:33:35;101545.78;;;23.86;100.00
52949;BME280;38812;50.942;3.644;2023-08-12T12:36:01;101552.53;;;24.06;100.00
52949;BME280;38812;50.942;3.644;2023-08-12T12:38:27;101561.63;;;24.70;100.00
52949;BME280;38812;50.942;3.644;2023-08-12T12:40:52;101561.75;;;24.68;100.00
52949;BME280;38812;50.942;3.644;2023-08-12T12:43:17;101567.13;;;24.68;100.00
52949;BME280;38812;50.942;3.644;2023-08-12T12:45:43;101557.75;;;24.61;100.00
52949;BME280;38812;50.942;3.644;2023-08-12T12:48:08;101569.78;;;23.61;100.00
52949;BME280;38812;50.942;3.644;2023-08-12T12:50:33;101569.72;;;24.03;100.00
52949;BME280;38812;50.942;3.644;2023-08-12T12:53:00;101562.84;;;23.58;100.00